This is the latest recevied weather packets stored in our database for station/object VE3VGJ. If no packets are shown the sender has not sent any weather packets the latest 10 day(s).
| Time | Temp. | Humidity | Pressure | Rain* | Wind** | Luminosity | Snow |
|---|---|---|---|---|---|---|---|
| 1777509957 | 8.89° C | 77% | 1008.4 hPa | 0 mm | - | 0 W/m² | - |
| 1777509653 | 8.89° C | 77% | 1008.3 hPa | 0 mm | - | 0 W/m² | - |
| 1777509350 | 8.89° C | 77% | 1008.3 hPa | 0 mm | - | 0 W/m² | - |
| 1777509047 | 8.89° C | 77% | 1008.4 hPa | 0 mm | - | 0 W/m² | - |
| 1777508744 | 8.89° C | 77% | 1008.3 hPa | 0 mm | - | 1 W/m² | - |
| 1777508442 | 8.89° C | 76% | 1008.3 hPa | 0 mm | - | 1 W/m² | - |
| 1777508138 | 9.44° C | 76% | 1008.3 hPa | 0 mm | - | 2 W/m² | - |
| 1777507835 | 9.44° C | 76% | 1008.2 hPa | 0 mm | - | 3 W/m² | - |
| 1777507532 | 9.44° C | 76% | 1008.2 hPa | 0 mm | - | 4 W/m² | - |
| 1777507229 | 9.44° C | 75% | 1008.3 hPa | 0 mm | - | 6 W/m² | - |
| 1777506927 | 9.44° C | 76% | 1008.2 hPa | 0 mm | - | 7 W/m² | - |
| 1777506624 | 9.44° C | 75% | 1008.2 hPa | 0 mm | - | 8 W/m² | - |
| 1777506320 | 9.44° C | 75% | 1008.4 hPa | 0 mm | - | 10 W/m² | - |
| 1777506016 | 9.44° C | 75% | 1008.2 hPa | 0 mm | - | 12 W/m² | - |
| 1777505711 | 9.44° C | 75% | 1008.1 hPa | 0 mm | - | 14 W/m² | - |
| 1777505409 | 9.44° C | 75% | 1008.1 hPa | 0 mm | - | 18 W/m² | - |
| 1777505105 | 9.44° C | 75% | 1008 hPa | 0 mm | - | 23 W/m² | - |
| 1777504802 | 9.44° C | 75% | 1008.1 hPa | 0 mm | - | 30 W/m² | - |
| 1777504499 | 9.44° C | 74% | 1008 hPa | 0 mm | - | 30 W/m² | - |
| 1777504195 | 9.44° C | 75% | 1007.9 hPa | 0 mm | - | 31 W/m² | - |
| 1777503890 | 9.44° C | 74% | 1008.2 hPa | 0 mm | - | 40 W/m² | - |
| 1777503586 | 9.44° C | 74% | 1008.1 hPa | 0 mm | - | 59 W/m² | - |
| 1777503284 | 9.44° C | 75% | 1007.9 hPa | 0 mm | - | 53 W/m² | - |
| 1777502980 | 9.44° C | 75% | 1007.8 hPa | 0 mm | - | 48 W/m² | - |
| 1777502678 | 9.44° C | 75% | 1008.2 hPa | 0 mm | - | 69 W/m² | - |
* Rain latest hour (hover to see other rain measurements)
** Current wind speed in m/s (hover to see current wind gust speed)